Weather at Biarritz-Anglet-Bayonne Airport

Public forecast

Using degrees Celsius for public forecast. Weather courtesy of forecast.io.

Current aviation weather report (METAR) for Biarritz-Anglet-Bayonne Airport

2024/05/26 15:30 (retrieved 21 minutes ago)

LFBZ 261530Z AUTO 31006KT 270V340 9999 SCT018/// OVC042/// 17/13 Q1021 NOSIG

Aviation forecast (TAF) for Biarritz-Anglet-Bayonne Airport

2024/05/26 12:37 Ammendment (retrieved 3 hours ago)

TAF AMD LFBZ 261132Z 2612/2712 32010KT 4000 -DZRA BKN010 BECMG 2612/2615 9999 NSW BKN025 BECMG 2618/2620 VRB03KT BKN015 PROB30 TEMPO 2622/2706 4000 -RA BKN010 OVC020 BECMG 2708/2711 32010KT BKN040